• Join FlightAware (Why Join?)
  • Login
  • US Flag 
01:31PM EDT


 

Airport Tracker/Info


-or-


 

Live Flight TrackerFlight Track Log ✈ RPA3252 ✈ 13-Sep-2013 ✈ KPIT - KPHL

Flight Track Log - Related Links

Times and Time Zones

All times are in EDT time to prevent confusion due to time zone crossing. See the RPA3252 flight status page for this flight to view local times or setup timezone preferences in your user account.

Time Position Orientation Groundspeed Altitude Reporting Facility
EDT Latitude Longitude Course Direction KTS MPH feet Rate Location/Type
10:29AM 40.4541 -79.8711 99° East  Level Estimated
10:30AM 40.4414 -79.7507 102° East  Level Estimated
10:31AM 40.4219 -79.6318 102° East  Level FlightAware Approximate
10:32AM 40.4092 -79.5115 99° East  Level Estimated
10:33AM 40.3963 -79.3911 99° East  Level Estimated
10:34AM 40.3772 -79.2723 102° East  Level FlightAware Approximate
10:35AM 40.3580 -79.1535 102° East  Level FlightAware Approximate
10:36AM 40.3452 -79.0332 102° East  Level Estimated
10:37AM 40.3322 -78.9130 90° East  Level Estimated
10:38AM 40.3190 -78.7929 90° East  Level Estimated
10:39AM 40.3058 -78.6728 90° East  Level Estimated
10:40AM 40.2924 -78.5527 90° East  Level Estimated
10:41AM 40.2941 -78.4314 89° East  Level FlightAware Approximate
10:42AM 40.2956 -78.3102 89° East  Level FlightAware Approximate
10:43AM 40.2970 -78.1889 89° East  Level FlightAware Approximate
10:44AM 40.2813 -78.0693 90° East  Level Estimated
10:45AM 40.2840 -77.9481 88° East  Level FlightAware Approximate
10:46AM 40.2866 -77.8268 88° East  Level FlightAware Approximate
10:47AM 40.2891 -77.7056 88° East  Level FlightAware Approximate
10:48AM 40.2914 -77.5843 89° East  Level FlightAware Approximate
10:49AM 40.2936 -77.4630 89° East  Level FlightAware Approximate
10:50AM 40.2957 -77.3417 89° East  Level FlightAware Approximate
10:51AM 40.2732 -77.2241 111° Southeast  Level Estimated
10:52AM 40.2505 -77.1066 105° East  Level Estimated
10:53AM 40.2347 -76.9871 100° East  Level FlightAware Approximate
10:54AM 40.2188 -76.8677 100° East  Level FlightAware Approximate
10:55AM 40.2027 -76.7484 100° East  Level FlightAware Approximate
10:56AM 40.1780 -76.6317 114° Southeast  Level Estimated
10:57AM 40.1531 -76.5151 90° East  Level Estimated
10:58AM 40.1281 -76.3985 97° East  Level Estimated
10:59AM 40.1029 -76.2821 99° East  Level Estimated
11:00AM 40.0777 -76.1657 90° East  Level Estimated
11:01AM 40.0523 -76.0495 108° East  Level Estimated
11:02AM 40.0269 -75.9333 90° East  Level Estimated
11:03AM 40.0013 -75.8172 90° East  Level Estimated
11:04AM 39.9756 -75.7012 90° East  Level Estimated
11:05AM 39.9497 -75.5852 90° East  Level Estimated
11:06AM 39.9238 -75.4694 90° East  Level Estimated
11:07AM 39.8978 -75.3536 163° South  Level Estimated
11:08AM 39.8722 -75.2409 70° East  Level Estimated
11:09AM 39.8722 -75.2409 72° East  Level Estimated
11:10AM 39.8722 -75.2409 90° East  Level Estimated
11:11AM 39.8722 -75.2409 247° West  Level Estimated
11:12AM 39.8722 -75.2409 247° West  Level Estimated
11:13AM 39.8722 -75.2409 237° Southwest  Level Estimated
11:14AM 39.8722 -75.2409 247° West  Level Estimated
11:15AM 39.8722 -75.2409 247° West  Level Estimated
11:16AM 39.8722 -75.2409 247° West  Level Estimated